AAL weather

Aalborg Airport
Aalborg, North Jutland, Denmark

Public forecast

Using degrees Celsius for public forecast. Weather courtesy of forecast.io.

METAR (pilot weather report)

Retrieved 2019/03/21 01:37 UTC (0 seconds ago):

EKYT 210137Z AUTO 22013KT 5000 -SHRA BR FEW006/// BKN008/// OVC011/// 08/07 Q1025

TAF (pilot weather forecast)

Retrieved 2019/03/20 21:30 UTC (4 hours ago):

TAF EKYT 202018Z 2021/2118 27008KT 9999 SCT020 TEMPO 2100/2106 2500 BR BKN004 BECMG 2103/2106 25018KT TEMPO 2106/2118 7000 BKN010